Time;durP1;ratioP1;P1;durP2;ratioP2;P2;SDS_P1;SDS_P2;PMS_P1;PMS_P2;Temp;Humidity;BMP_temperature;BMP_pressure;BME280_temperature;BME280_humidity;BME280_pressure;Samples;Min_cycle;Max_cycle;Signal;HPM_P1;HPM_P2
2022/04/24 00:00:54;;;;;;;11.60;11.20;;;21.80;53.00;;;;;;5051682;28;20484;-44
2022/04/24 00:03:21;;;;;;;11.90;11.50;;;21.80;53.00;;;;;;5051845;28;20472;-44
2022/04/24 00:05:49;;;;;;;11.80;11.40;;;21.80;52.90;;;;;;5052109;28;20444;-44
2022/04/24 00:08:16;;;;;;;11.37;10.97;;;21.90;53.10;;;;;;5051810;28;20448;-45
2022/04/24 00:10:42;;;;;;;12.57;12.03;;;21.80;52.80;;;;;;5051332;28;20809;-46
2022/04/24 00:13:11;;;;;;;12.47;12.07;;;21.90;52.70;;;;;;5051824;28;20834;-46
2022/04/24 00:15:39;;;;;;;11.43;11.03;;;21.80;52.00;;;;;;5051855;28;20795;-46
2022/04/24 00:18:06;;;;;;;11.50;11.20;;;21.80;51.90;;;;;;5051192;28;20506;-44
2022/04/24 00:20:32;;;;;;;11.10;10.80;;;21.80;51.90;;;;;;5051406;28;20528;-44
2022/04/24 00:23:00;;;;;;;11.83;11.43;;;21.70;51.90;;;;;;5051651;28;20464;-44
2022/04/24 00:25:27;;;;;;;12.00;11.60;;;21.70;52.20;;;;;;5051609;28;20444;-44
2022/04/24 00:27:54;;;;;;;12.53;12.13;;;21.70;51.90;;;;;;5051464;28;20444;-44
2022/04/24 00:30:21;;;;;;;11.43;11.03;;;21.70;51.90;;;;;;5051391;28;20448;-44
2022/04/24 00:32:47;;;;;;;12.27;11.77;;;21.60;51.90;;;;;;5051544;28;20475;-44
2022/04/24 00:35:14;;;;;;;12.13;11.73;;;21.60;51.90;;;;;;5051539;28;20810;-44
2022/04/24 00:37:41;;;;;;;12.07;11.67;;;21.60;51.90;;;;;;5051093;28;20443;-44
2022/04/24 00:40:11;;;;;;;12.00;11.60;;;21.60;52.00;;;;;;5051336;28;21019;-44
2022/04/24 00:42:38;;;;;;;11.17;10.87;;;21.60;52.00;;;;;;5090346;22;20497;-42
2022/04/24 00:45:05;;;;;;;11.60;11.30;;;21.60;52.10;;;;;;5091524;28;20438;-42
2022/04/24 00:47:32;;;;;;;11.90;11.50;;;21.60;52.10;;;;;;5107290;28;20444;-43
2022/04/24 00:49:59;;;;;;;12.93;12.43;;;21.60;52.10;;;;;;5112033;28;20441;-41
2022/04/24 00:52:26;;;;;;;11.30;11.00;;;21.60;52.10;;;;;;5111922;28;20477;-42
2022/04/24 00:54:53;;;;;;;11.30;10.90;;;21.60;52.10;;;;;;5111998;28;21021;-41
2022/04/24 00:57:21;;;;;;;11.63;11.33;;;21.50;52.00;;;;;;5097398;28;21246;-42
2022/04/24 00:59:48;;;;;;;12.23;11.83;;;21.50;52.00;;;;;;5091536;28;20478;-41
2022/04/24 01:02:14;;;;;;;11.73;11.33;;;21.50;52.10;;;;;;5091519;28;20466;-42
2022/04/24 01:04:41;;;;;;;12.83;12.40;;;21.50;52.10;;;;;;5091608;28;20811;-41
2022/04/24 01:07:08;;;;;;;11.60;11.20;;;21.50;52.10;;;;;;5103262;28;20441;-42
2022/04/24 01:09:36;;;;;;;11.60;11.20;;;21.50;52.10;;;;;;5111750;28;20445;-41
2022/04/24 01:12:05;;;;;;;11.10;10.80;;;21.50;52.10;;;;;;5111860;28;20494;-42
2022/04/24 01:14:34;;;;;;;12.00;11.60;;;21.40;52.00;;;;;;5107487;28;20453;-42
2022/04/24 01:17:02;;;;;;;11.83;11.43;;;21.40;52.10;;;;;;5091344;28;20801;-42
2022/04/24 01:19:28;;;;;;;11.13;10.83;;;21.40;52.10;;;;;;5094635;28;20442;-42
2022/04/24 01:21:57;;;;;;;11.80;11.50;;;21.40;52.20;;;;;;5111750;28;20452;-41
2022/04/24 01:24:25;;;;;;;11.60;11.20;;;21.40;52.20;;;;;;5108624;28;20446;-44
2022/04/24 01:26:52;;;;;;;11.40;11.00;;;21.40;52.20;;;;;;5098078;28;20469;-43
2022/04/24 01:29:20;;;;;;;11.77;11.37;;;21.40;52.20;;;;;;5113702;28;20453;-42
2022/04/24 01:31:48;;;;;;;10.70;10.40;;;21.40;52.20;;;;;;5115542;28;20446;-42
2022/04/24 01:34:15;;;;;;;10.73;10.43;;;21.40;52.30;;;;;;5114071;28;20446;-42
2022/04/24 01:36:43;;;;;;;11.87;11.47;;;21.40;52.30;;;;;;5095018;28;20442;-41
2022/04/24 01:39:11;;;;;;;11.23;10.93;;;21.30;52.20;;;;;;5095004;28;20453;-41
2022/04/24 01:41:38;;;;;;;11.87;11.53;;;21.30;52.20;;;;;;5094952;28;21088;-41
2022/04/24 01:44:05;;;;;;;11.20;10.83;;;21.30;52.20;;;;;;5094766;28;20500;-42
2022/04/24 01:46:32;;;;;;;11.30;11.00;;;21.30;52.20;;;;;;5114612;28;20442;-41
2022/04/24 01:48:59;;;;;;;11.37;11.07;;;21.30;52.20;;;;;;5115338;28;20457;-41
2022/04/24 01:51:26;;;;;;;11.87;11.47;;;21.30;52.20;;;;;;5115326;28;20799;-42
2022/04/24 01:53:53;;;;;;;11.10;10.70;;;21.30;52.20;;;;;;5115099;27;20488;-43
2022/04/24 01:56:21;;;;;;;11.13;10.83;;;21.30;52.30;;;;;;5096572;28;20450;-41
2022/04/24 01:58:47;;;;;;;10.80;10.50;;;21.30;52.30;;;;;;5095573;28;20443;-42
2022/04/24 02:01:14;;;;;;;11.60;11.20;;;21.30;52.30;;;;;;5094607;28;20478;-41
2022/04/24 02:03:41;;;;;;;10.80;10.50;;;21.30;52.40;;;;;;5094619;28;20470;-41
2022/04/24 02:06:08;;;;;;;11.07;10.67;;;21.30;52.30;;;;;;5110598;28;20943;-42
2022/04/24 02:08:36;;;;;;;12.80;12.40;;;21.20;52.30;;;;;;5114697;28;20445;-41
2022/04/24 02:11:03;;;;;;;11.00;10.70;;;21.20;52.30;;;;;;5114911;28;20808;-41
2022/04/24 02:13:32;;;;;;;11.90;11.40;;;21.20;52.30;;;;;;5114714;28;20473;-42
2022/04/24 02:15:58;;;;;;;11.27;10.97;;;21.20;52.30;;;;;;5099672;28;20443;-42
2022/04/24 02:18:25;;;;;;;12.00;11.37;;;21.20;52.30;;;;;;5094187;28;20454;-41
2022/04/24 02:20:52;;;;;;;11.80;11.40;;;21.20;52.30;;;;;;5094172;28;20855;-41
2022/04/24 02:23:19;;;;;;;11.53;11.20;;;21.20;52.30;;;;;;5095206;28;20455;-41
2022/04/24 02:25:46;;;;;;;11.17;10.87;;;21.20;52.30;;;;;;5094233;28;20453;-43
2022/04/24 02:28:12;;;;;;;10.87;10.57;;;21.20;52.30;;;;;;5093967;28;20453;-41
2022/04/24 02:30:41;;;;;;;11.80;11.43;;;21.10;52.20;;;;;;5094123;28;20446;-42
2022/04/24 02:33:09;;;;;;;11.60;11.20;;;21.10;52.20;;;;;;5098333;28;20489;-43
2022/04/24 02:35:35;;;;;;;11.40;11.10;;;21.10;52.30;;;;;;5114320;28;20441;-41
2022/04/24 02:38:02;;;;;;;11.50;11.10;;;21.10;52.20;;;;;;5114130;28;20468;-42
2022/04/24 02:40:29;;;;;;;11.60;11.20;;;21.10;52.30;;;;;;5113847;28;20484;-41
2022/04/24 02:42:56;;;;;;;11.13;10.83;;;21.10;52.30;;;;;;5096986;28;20541;-41
2022/04/24 02:45:23;;;;;;;12.00;11.60;;;21.10;52.30;;;;;;5093806;28;20439;-41
2022/04/24 02:47:51;;;;;;;11.60;11.30;;;21.10;52.30;;;;;;5093489;28;20445;-41
2022/04/24 02:50:18;;;;;;;12.37;11.97;;;21.10;52.30;;;;;;5093727;28;20815;-41
2022/04/24 02:52:46;;;;;;;11.73;11.33;;;21.10;52.30;;;;;;5108283;28;20468;-42
2022/04/24 02:55:14;;;;;;;11.63;11.33;;;21.10;52.30;;;;;;5113972;28;20449;-42
2022/04/24 02:57:41;;;;;;;11.17;10.87;;;21.10;52.40;;;;;;5113877;28;20438;-41
2022/04/24 03:00:09;;;;;;;12.13;11.73;;;21.10;52.30;;;;;;5113926;28;20450;-41
2022/04/24 03:02:41;;;;;;;12.10;11.70;;;21.10;52.30;;;;;;5100033;28;20955;-41
2022/04/24 03:05:10;;;;;;;11.63;11.23;;;21.10;52.30;;;;;;5093534;28;20506;-41
2022/04/24 03:07:37;;;;;;;11.57;11.17;;;21.10;52.30;;;;;;5093171;28;20819;-41
2022/04/24 03:10:04;;;;;;;12.00;11.70;;;21.00;52.30;;;;;;5093266;28;20450;-41
2022/04/24 03:12:31;;;;;;;11.10;10.80;;;21.00;52.30;;;;;;5105612;28;20473;-42
2022/04/24 03:14:58;;;;;;;12.17;11.77;;;21.00;52.30;;;;;;5113583;28;20450;-41
2022/04/24 03:17:25;;;;;;;11.30;11.00;;;21.00;52.30;;;;;;5113450;28;20453;-43
2022/04/24 03:19:51;;;;;;;11.90;11.60;;;21.00;52.30;;;;;;5113476;28;20446;-41
2022/04/24 03:22:19;;;;;;;11.83;11.43;;;21.00;52.30;;;;;;5102518;28;20493;-41
2022/04/24 03:24:46;;;;;;;12.33;12.03;;;21.00;52.20;;;;;;5093089;28;20798;-41
2022/04/24 03:27:13;;;;;;;11.37;11.07;;;21.00;52.30;;;;;;5092946;28;20442;-41
2022/04/24 03:29:41;;;;;;;11.00;10.60;;;21.00;52.30;;;;;;5094872;28;20454;-41
2022/04/24 03:32:09;;;;;;;11.83;11.43;;;21.00;52.30;;;;;;5113164;28;20462;-42
2022/04/24 03:34:37;;;;;;;12.07;11.67;;;21.00;52.30;;;;;;5113192;28;20442;-42
2022/04/24 03:37:04;;;;;;;11.10;10.80;;;20.90;52.30;;;;;;5112940;28;20453;-44
2022/04/24 03:39:32;;;;;;;11.80;11.40;;;20.90;52.30;;;;;;5112154;28;20468;-41
2022/04/24 03:41:59;;;;;;;12.30;11.90;;;20.90;52.30;;;;;;5092400;28;20479;-41
2022/04/24 03:44:26;;;;;;;11.80;11.50;;;20.90;52.20;;;;;;5092835;28;20446;-42
2022/04/24 03:46:53;;;;;;;11.77;11.37;;;20.90;52.30;;;;;;5092455;28;20434;-41
2022/04/24 03:49:20;;;;;;;12.27;11.87;;;20.90;52.20;;;;;;5092558;28;20951;-43
2022/04/24 03:51:46;;;;;;;11.73;11.33;;;20.90;52.20;;;;;;5110801;28;20438;-42
2022/04/24 03:54:13;;;;;;;13.17;12.77;;;20.90;52.20;;;;;;5112947;28;20448;-41
2022/04/24 03:56:41;;;;;;;11.97;11.63;;;20.90;52.30;;;;;;5112664;28;20479;-41
2022/04/24 03:59:08;;;;;;;12.60;12.10;;;20.90;52.20;;;;;;5112714;28;20446;-41
2022/04/24 04:01:35;;;;;;;11.40;11.10;;;20.90;52.30;;;;;;5094810;28;20489;-42
2022/04/24 04:04:02;;;;;;;11.13;10.83;;;20.90;52.20;;;;;;5092258;28;20470;-41
2022/04/24 04:06:29;;;;;;;11.87;11.47;;;20.80;52.10;;;;;;5092182;28;20450;-42
2022/04/24 04:08:56;;;;;;;11.43;11.10;;;20.90;52.30;;;;;;5092155;28;20454;-41
2022/04/24 04:11:23;;;;;;;10.83;10.43;;;20.80;52.20;;;;;;5107412;28;20445;-41
2022/04/24 04:13:51;;;;;;;12.03;11.63;;;20.80;52.20;;;;;;5112482;28;20898;-41
2022/04/24 04:16:17;;;;;;;11.90;11.50;;;20.80;52.20;;;;;;5112397;28;20449;-42
2022/04/24 04:18:44;;;;;;;11.40;11.10;;;20.80;52.20;;;;;;5112345;28;20961;-41
2022/04/24 04:21:11;;;;;;;11.50;11.20;;;20.80;52.20;;;;;;5098344;28;20484;-41
2022/04/24 04:23:38;;;;;;;12.00;11.70;;;20.80;52.20;;;;;;5091918;28;20473;-41
2022/04/24 04:26:04;;;;;;;11.27;10.97;;;20.80;52.20;;;;;;5091957;28;20450;-41
2022/04/24 04:28:31;;;;;;;11.57;11.17;;;20.80;52.20;;;;;;5091786;28;20449;-42
2022/04/24 04:30:59;;;;;;;11.73;11.33;;;20.80;52.20;;;;;;5103171;28;20468;-41
2022/04/24 04:33:26;;;;;;;10.90;10.60;;;20.80;52.20;;;;;;5112193;28;20465;-41
2022/04/24 04:35:52;;;;;;;11.80;11.40;;;20.80;52.20;;;;;;5112173;28;20817;-41
2022/04/24 04:38:19;;;;;;;11.60;11.20;;;20.70;52.10;;;;;;5108576;28;20451;-41
2022/04/24 04:40:46;;;;;;;11.40;11.07;;;20.80;52.20;;;;;;5091820;28;20505;-41
2022/04/24 04:43:13;;;;;;;12.07;11.70;;;20.80;52.20;;;;;;5091648;28;20478;-41
2022/04/24 04:45:40;;;;;;;12.10;11.70;;;20.70;52.20;;;;;;5091792;28;20513;-41
2022/04/24 04:48:08;;;;;;;11.47;11.13;;;20.70;52.20;;;;;;5106637;28;20528;-41
2022/04/24 04:50:35;;;;;;;11.60;11.20;;;20.70;52.30;;;;;;5112054;28;20449;-43
2022/04/24 04:53:02;;;;;;;11.60;11.20;;;20.70;52.20;;;;;;5111911;28;20823;-41
2022/04/24 04:55:29;;;;;;;12.10;11.70;;;20.70;52.10;;;;;;5112134;28;20795;-41
2022/04/24 04:57:56;;;;;;;11.77;11.43;;;20.70;52.20;;;;;;5098187;28;20450;-41
2022/04/24 05:00:23;;;;;;;12.10;11.70;;;20.70;52.20;;;;;;5091658;28;20442;-41
2022/04/24 05:02:50;;;;;;;12.20;11.77;;;20.70;52.20;;;;;;5110528;28;20481;-43
2022/04/24 05:05:18;;;;;;;11.80;11.40;;;20.70;52.20;;;;;;5116047;28;20449;-41
2022/04/24 05:07:44;;;;;;;12.60;12.20;;;20.70;52.20;;;;;;5115856;28;20446;-41
2022/04/24 05:10:11;;;;;;;11.67;11.37;;;20.70;52.10;;;;;;5116110;28;20441;-41
2022/04/24 05:12:38;;;;;;;11.70;11.40;;;20.70;52.20;;;;;;5106421;28;20473;-43
2022/04/24 05:15:07;;;;;;;12.13;11.73;;;20.70;52.20;;;;;;5115934;28;20445;-41
2022/04/24 05:17:35;;;;;;;11.50;11.10;;;20.70;52.20;;;;;;5115840;28;20446;-41
2022/04/24 05:20:02;;;;;;;12.30;11.90;;;20.70;52.30;;;;;;5115818;28;20930;-41
2022/04/24 05:22:30;;;;;;;11.20;10.80;;;20.60;52.20;;;;;;5100947;27;20478;-42
2022/04/24 05:24:56;;;;;;;11.10;10.80;;;20.60;52.00;;;;;;5095414;28;20442;-46
2022/04/24 05:27:23;;;;;;;12.27;11.87;;;20.60;52.20;;;;;;5095007;28;20453;-44
2022/04/24 05:29:50;;;;;;;11.43;11.03;;;20.60;52.20;;;;;;5095293;28;20446;-41
2022/04/24 05:32:17;;;;;;;12.97;12.23;;;20.60;52.30;;;;;;5107234;28;21020;-41
2022/04/24 05:34:44;;;;;;;12.53;11.83;;;20.60;52.40;;;;;;5115565;28;20444;-41
2022/04/24 05:37:11;;;;;;;11.83;11.53;;;20.60;52.40;;;;;;5115471;28;20445;-44
2022/04/24 05:39:39;;;;;;;13.10;12.63;;;20.60;52.60;;;;;;5111260;28;20435;-41
2022/04/24 05:42:07;;;;;;;12.03;11.63;;;20.60;52.60;;;;;;5094645;28;20474;-41
2022/04/24 05:44:34;;;;;;;12.13;11.73;;;20.60;52.80;;;;;;5094943;28;20443;-42
2022/04/24 05:47:00;;;;;;;12.20;11.80;;;20.60;52.90;;;;;;5094848;28;20443;-42
2022/04/24 05:49:27;;;;;;;11.83;11.43;;;20.60;52.90;;;;;;5096878;28;20455;-41
2022/04/24 05:51:54;;;;;;;11.97;11.60;;;20.60;53.00;;;;;;5115153;28;20441;-42
2022/04/24 05:54:21;;;;;;;12.67;12.03;;;20.60;53.00;;;;;;5115230;28;20876;-41
2022/04/24 05:56:49;;;;;;;12.00;11.60;;;20.60;53.10;;;;;;5115095;28;20789;-42
2022/04/24 05:59:15;;;;;;;11.77;11.43;;;20.60;53.20;;;;;;5114168;28;20456;-40
2022/04/24 06:01:42;;;;;;;12.57;12.17;;;20.60;53.10;;;;;;5114298;28;20557;-42
2022/04/24 06:04:09;;;;;;;12.07;11.67;;;20.60;53.10;;;;;;5114888;27;20468;-42
2022/04/24 06:06:36;;;;;;;12.10;11.70;;;20.60;53.10;;;;;;5114745;28;20434;-42
2022/04/24 06:09:02;;;;;;;11.40;11.10;;;20.60;53.10;;;;;;5114914;28;20449;-42
2022/04/24 06:11:29;;;;;;;12.50;12.10;;;20.60;53.10;;;;;;5113160;28;20438;-42
2022/04/24 06:13:57;;;;;;;12.50;12.10;;;20.60;53.10;;;;;;5099651;28;21026;-42
2022/04/24 06:16:24;;;;;;;12.80;12.37;;;20.60;53.10;;;;;;5094138;28;20454;-48
2022/04/24 06:18:51;;;;;;;12.60;12.17;;;20.60;53.10;;;;;;5094271;28;20442;-42
2022/04/24 06:21:18;;;;;;;12.10;11.70;;;20.60;53.10;;;;;;5111053;28;20469;-44
2022/04/24 06:23:44;;;;;;;14.10;13.50;;;20.60;53.30;;;;;;5114549;28;20472;-43
2022/04/24 06:26:11;;;;;;;12.93;12.50;;;20.60;53.60;;;;;;5114689;28;20445;-42
2022/04/24 06:28:38;;;;;;;12.50;12.10;;;20.60;53.70;;;;;;5114359;28;20442;-44
2022/04/24 06:31:06;;;;;;;11.70;11.30;;;20.60;53.70;;;;;;5109586;28;20930;-42
2022/04/24 06:33:33;;;;;;;12.03;11.67;;;20.60;53.80;;;;;;5114335;28;20462;-42
2022/04/24 06:35:59;;;;;;;12.13;11.73;;;20.60;53.90;;;;;;5114500;28;20474;-43
2022/04/24 06:38:26;;;;;;;11.83;11.33;;;20.60;54.10;;;;;;5114049;28;20451;-46
2022/04/24 06:40:53;;;;;;;11.70;11.30;;;20.60;53.90;;;;;;5100725;28;20465;-47
2022/04/24 06:43:20;;;;;;;11.70;11.30;;;20.60;53.80;;;;;;5115624;22;20545;-47
2022/04/24 06:45:46;;;;;;;12.50;12.10;;;20.70;54.00;;;;;;5080164;28;20958;-46
2022/04/24 06:48:16;;;;;;;12.10;11.70;;;20.70;54.40;;;;;;5093240;28;20450;-44
2022/04/24 06:50:44;;;;;;;12.07;11.67;;;20.70;53.80;;;;;;5093707;28;20447;-44
2022/04/24 06:53:14;;;;;;;12.70;12.20;;;20.70;53.90;;;;;;5093586;28;20821;-44
2022/04/24 06:55:42;;;;;;;12.70;12.30;;;20.70;53.90;;;;;;5093617;28;20451;-43
2022/04/24 06:58:11;;;;;;;12.60;12.00;;;20.70;53.80;;;;;;5092512;28;20446;-49
2022/04/24 07:00:40;;;;;;;13.00;12.57;;;20.70;53.80;;;;;;5093516;28;20924;-44
2022/04/24 07:03:10;;;;;;;12.50;12.10;;;20.80;54.10;;;;;;5093287;28;20864;-45
2022/04/24 07:05:39;;;;;;;12.87;12.47;;;20.80;53.90;;;;;;5093319;28;20442;-45
2022/04/24 07:08:06;;;;;;;12.37;12.00;;;20.80;53.90;;;;;;5089709;28;20447;-44
2022/04/24 07:10:33;;;;;;;13.00;12.60;;;20.80;54.00;;;;;;5073104;28;20450;-45
2022/04/24 07:13:01;;;;;;;13.80;13.27;;;20.80;54.00;;;;;;5073047;28;20467;-44
2022/04/24 07:15:31;;;;;;;13.30;12.70;;;20.80;54.00;;;;;;5072898;28;20453;-45
2022/04/24 07:17:58;;;;;;;13.70;12.90;;;20.80;54.00;;;;;;5074182;28;20449;-45
2022/04/24 07:20:25;;;;;;;12.10;11.70;;;20.80;54.00;;;;;;5093085;28;20856;-44
2022/04/24 07:22:54;;;;;;;11.80;11.40;;;20.80;53.90;;;;;;5092869;28;20482;-46
2022/04/24 07:25:22;;;;;;;12.73;12.33;;;20.90;54.10;;;;;;5092914;28;20443;-44
2022/04/24 07:27:49;;;;;;;12.67;12.27;;;20.90;54.00;;;;;;5092035;28;20943;-44
2022/04/24 07:30:17;;;;;;;12.30;11.80;;;20.90;54.00;;;;;;5083854;28;20443;-47
2022/04/24 07:32:47;;;;;;;12.73;12.23;;;20.90;54.50;;;;;;5072503;28;20460;-45
2022/04/24 07:35:15;;;;;;;14.20;13.50;;;20.90;53.90;;;;;;5072501;28;20448;-44
2022/04/24 07:37:42;;;;;;;12.67;12.17;;;20.90;53.80;;;;;;5072249;28;20444;-44
2022/04/24 07:40:12;;;;;;;13.10;12.60;;;20.90;53.90;;;;;;5092001;28;20447;-44
2022/04/24 07:42:49;;;;;;;13.53;12.90;;;20.90;54.10;;;;;;5092483;28;20490;-43
2022/04/24 07:45:20;;;;;;;13.17;12.63;;;20.90;53.90;;;;;;5092548;28;20811;-46
2022/04/24 07:47:47;;;;;;;15.00;14.10;;;21.00;53.90;;;;;;5092461;28;20451;-43
2022/04/24 07:50:15;;;;;;;19.00;17.33;;;21.00;53.80;;;;;;5091494;28;20976;-43
2022/04/24 07:52:42;;;;;;;16.90;15.67;;;21.00;53.70;;;;;;5092462;28;20468;-43
2022/04/24 07:55:12;;;;;;;16.80;15.60;;;21.00;53.80;;;;;;5092660;28;20445;-44
2022/04/24 07:57:39;;;;;;;16.57;15.37;;;20.90;53.60;;;;;;5092183;28;20439;-44
2022/04/24 08:00:07;;;;;;;18.50;17.10;;;21.00;53.60;;;;;;5073367;28;20466;-43
2022/04/24 08:02:44;;;;;;;19.07;17.47;;;20.90;53.60;;;;;;5072089;28;20479;-44
2022/04/24 08:05:11;;;;;;;19.20;17.50;;;21.00;53.60;;;;;;5072057;28;20452;-45
2022/04/24 08:07:37;;;;;;;20.10;18.50;;;21.00;53.60;;;;;;5071788;28;20889;-45
2022/04/24 08:10:05;;;;;;;20.13;18.50;;;21.00;53.60;;;;;;5090039;28;20947;-44
2022/04/24 08:12:33;;;;;;;18.43;16.83;;;21.00;53.50;;;;;;5092066;28;20936;-44
2022/04/24 08:14:59;;;;;;;18.30;16.70;;;21.00;53.60;;;;;;5092017;28;20447;-44
2022/04/24 08:17:26;;;;;;;18.47;17.07;;;21.10;53.60;;;;;;5092007;28;20446;-44
2022/04/24 08:19:53;;;;;;;18.90;17.47;;;21.10;53.50;;;;;;5075289;28;20455;-47
2022/04/24 08:22:19;;;;;;;18.53;17.23;;;21.00;53.60;;;;;;5071493;28;20479;-44
2022/04/24 08:24:46;;;;;;;17.10;16.07;;;21.00;53.40;;;;;;5071719;28;20447;-44
2022/04/24 08:27:13;;;;;;;17.60;16.50;;;21.00;53.40;;;;;;5071612;28;20448;-47
2022/04/24 08:29:41;;;;;;;18.33;16.80;;;21.00;53.30;;;;;;5085808;28;20962;-47
2022/04/24 08:32:08;;;;;;;18.80;17.43;;;21.00;53.20;;;;;;5091936;28;20438;-48
2022/04/24 08:34:35;;;;;;;17.00;16.00;;;20.90;53.20;;;;;;5091745;28;20481;-46
2022/04/24 08:37:01;;;;;;;18.50;17.17;;;21.00;53.20;;;;;;5091236;28;20454;-47
2022/04/24 08:39:32;;;;;;;17.70;16.50;;;21.00;53.40;;;;;;5076422;28;20446;-48
2022/04/24 08:41:59;;;;;;;17.63;16.43;;;20.90;53.60;;;;;;5071553;28;20447;-47
2022/04/24 08:44:27;;;;;;;16.03;15.03;;;21.00;53.10;;;;;;5071460;28;20502;-47
2022/04/24 08:46:56;;;;;;;16.07;15.00;;;21.00;52.90;;;;;;5071671;28;20454;-47
2022/04/24 08:49:23;;;;;;;17.77;16.37;;;21.00;52.90;;;;;;5085400;28;20453;-47
2022/04/24 08:51:51;;;;;;;16.23;14.87;;;21.00;53.40;;;;;;5091793;28;20802;-47
2022/04/24 08:54:19;;;;;;;18.70;17.17;;;21.10;54.00;;;;;;5091701;28;20471;-48
2022/04/24 08:56:45;;;;;;;17.20;15.63;;;21.10;56.00;;;;;;5085125;28;20456;-47
2022/04/24 08:59:12;;;;;;;17.97;16.67;;;21.10;55.70;;;;;;5071477;28;20439;-48
2022/04/24 09:01:44;;;;;;;18.63;17.17;;;21.10;55.30;;;;;;5071328;28;20447;-47
2022/04/24 09:04:12;;;;;;;18.43;16.80;;;21.10;55.20;;;;;;5071354;28;20463;-51
2022/04/24 09:06:42;;;;;;;16.87;15.80;;;21.10;55.60;;;;;;5075659;28;20443;-53
2022/04/24 09:09:09;;;;;;;19.00;17.17;;;21.10;57.60;;;;;;5091471;28;20846;-52
2022/04/24 09:11:36;;;;;;;16.50;15.20;;;21.00;58.00;;;;;;5091344;28;20442;-50
2022/04/24 09:14:17;;;;;;;16.13;15.23;;;21.00;55.70;;;;;;5091319;28;20462;-51
2022/04/24 09:16:48;;;;;;;15.13;14.23;;;20.90;53.70;;;;;;5085844;28;20804;-50
2022/04/24 09:19:21;;;;;;;17.13;16.03;;;20.80;51.90;;;;;;5071178;28;20788;-51
2022/04/24 09:21:48;;;;;;;16.57;15.67;;;20.80;51.20;;;;;;5071628;28;20537;-50
2022/04/24 09:24:15;;;;;;;15.13;14.43;;;20.70;49.80;;;;;;5071300;28;20494;-52
2022/04/24 09:26:53;;;;;;;15.33;14.63;;;20.70;49.20;;;;;;5075554;28;20453;-52
2022/04/24 09:29:21;;;;;;;14.90;14.30;;;20.60;48.40;;;;;;5080713;28;20501;-50
2022/04/24 09:31:48;;;;;;;16.53;15.73;;;20.60;48.00;;;;;;5071151;28;20843;-51
2022/04/24 09:34:17;;;;;;;16.50;15.80;;;20.60;47.60;;;;;;5089237;28;20466;-49
2022/04/24 09:36:45;;;;;;;15.53;14.63;;;20.60;47.20;;;;;;5086273;28;20450;-52
2022/04/24 09:39:12;;;;;;;16.67;15.57;;;20.40;46.60;;;;;;5070984;28;20448;-52
2022/04/24 09:41:39;;;;;;;15.47;14.67;;;20.40;46.00;;;;;;5070994;28;20825;-50
2022/04/24 09:44:13;;;;;;;16.57;15.67;;;20.20;45.60;;;;;;5070937;28;20515;-50
2022/04/24 09:46:40;;;;;;;16.00;15.30;;;20.20;45.40;;;;;;5074518;28;20935;-50
2022/04/24 09:49:10;;;;;;;15.33;14.63;;;20.20;45.30;;;;;;5091201;28;20529;-51
2022/04/24 09:51:40;;;;;;;15.30;14.50;;;20.30;45.50;;;;;;5093285;28;20446;-51
2022/04/24 09:54:10;;;;;;;14.20;13.63;;;20.30;46.00;;;;;;5091428;28;20888;-48
2022/04/24 09:56:38;;;;;;;15.17;14.47;;;20.50;47.20;;;;;;5094351;28;20446;-47
2022/04/24 09:59:06;;;;;;;13.30;12.70;;;20.50;47.20;;;;;;5094588;28;20453;-48
2022/04/24 10:01:35;;;;;;;15.40;14.80;;;20.60;47.60;;;;;;5094774;28;20533;-48
2022/04/24 10:04:05;;;;;;;14.50;13.80;;;20.60;47.90;;;;;;5092706;28;20483;-48
2022/04/24 10:06:33;;;;;;;14.80;14.17;;;20.60;48.30;;;;;;5074948;28;20456;-49
2022/04/24 10:09:04;;;;;;;14.93;14.27;;;20.60;48.90;;;;;;5089900;28;20454;-51
2022/04/24 10:11:33;;;;;;;13.63;13.13;;;20.60;49.50;;;;;;5094642;28;20451;-49
2022/04/24 10:14:07;;;;;;;16.00;15.30;;;20.70;50.30;;;;;;5091306;28;20808;-49
2022/04/24 10:17:07;;;;;;;14.80;14.20;;;20.80;51.00;;;;;;5093918;28;20830;-48
2022/04/24 10:19:49;;;;;;;14.27;13.67;;;20.90;51.30;;;;;;5094447;28;20439;-48
2022/04/24 10:22:29;;;;;;;15.27;14.47;;;20.90;51.40;;;;;;5092510;28;20451;-48
2022/04/24 10:25:00;;;;;;;13.57;12.97;;;20.90;51.20;;;;;;5083640;28;20986;-48
2022/04/24 10:27:41;;;;;;;14.43;13.73;;;21.00;51.60;;;;;;5074906;28;21069;-48
2022/04/24 10:30:12;;;;;;;14.67;14.07;;;21.00;51.40;;;;;;5074243;28;20450;-48
2022/04/24 10:32:39;;;;;;;13.13;12.60;;;21.00;51.50;;;;;;5074764;28;20525;-48
2022/04/24 10:35:16;;;;;;;14.00;13.50;;;21.10;51.70;;;;;;5074058;28;20975;-48
2022/04/24 10:37:44;;;;;;;13.43;12.93;;;21.10;51.90;;;;;;5075197;28;20443;-48
2022/04/24 10:40:14;;;;;;;13.17;12.67;;;21.10;51.70;;;;;;5073829;28;20443;-48
2022/04/24 10:42:44;;;;;;;14.30;13.80;;;21.20;51.80;;;;;;5073368;28;20987;-51
2022/04/24 10:45:14;;;;;;;13.73;13.23;;;21.20;51.90;;;;;;5073609;28;20952;-50
2022/04/24 10:47:47;;;;;;;13.50;13.00;;;21.20;52.10;;;;;;5073686;28;20447;-48
2022/04/24 10:50:15;;;;;;;14.40;13.80;;;21.20;52.20;;;;;;5073684;28;20439;-48
2022/04/24 10:52:44;;;;;;;14.23;13.73;;;21.20;52.10;;;;;;5073463;28;20534;-48
2022/04/24 10:55:14;;;;;;;14.57;14.00;;;21.20;52.00;;;;;;5073438;28;20446;-48
2022/04/24 10:57:43;;;;;;;13.87;13.37;;;21.30;51.90;;;;;;5074251;28;20998;-48
2022/04/24 11:00:19;;;;;;;13.73;13.17;;;21.30;51.50;;;;;;5074196;28;20831;-47
2022/04/24 11:02:46;;;;;;;13.27;12.77;;;21.20;51.50;;;;;;5073530;28;20987;-48
2022/04/24 11:05:19;;;;;;;13.20;12.80;;;21.20;51.80;;;;;;5073422;28;20452;-47
2022/04/24 11:07:46;;;;;;;13.90;13.40;;;21.20;51.80;;;;;;5074236;28;20941;-49
2022/04/24 11:10:14;;;;;;;13.97;13.47;;;21.20;51.70;;;;;;5073426;28;20447;-47
2022/04/24 11:12:43;;;;;;;16.20;15.20;;;21.10;51.60;;;;;;5073149;28;20464;-48
2022/04/24 11:15:12;;;;;;;15.40;14.60;;;21.10;51.90;;;;;;5073411;28;20825;-50
2022/04/24 11:17:40;;;;;;;16.07;15.07;;;21.10;52.00;;;;;;5088190;28;21028;-49
2022/04/24 11:20:09;;;;;;;18.37;17.07;;;21.10;52.00;;;;;;5093427;28;20450;-48
2022/04/24 11:22:47;;;;;;;17.67;16.43;;;21.10;51.90;;;;;;5093224;28;20443;-50
2022/04/24 11:25:15;;;;;;;18.30;17.00;;;21.10;51.90;;;;;;5093384;28;20446;-49
2022/04/24 11:27:46;;;;;;;22.33;20.40;;;21.10;51.90;;;;;;5091234;28;20448;-51
2022/04/24 11:30:17;;;;;;;21.80;20.03;;;21.10;52.00;;;;;;5092683;28;20464;-49
2022/04/24 11:32:58;;;;;;;20.07;18.47;;;21.10;51.90;;;;;;5093323;28;20462;-49
2022/04/24 11:35:28;;;;;;;19.67;18.10;;;21.10;52.00;;;;;;5093084;28;20442;-49
2022/04/24 11:37:55;;;;;;;22.00;20.30;;;21.10;52.00;;;;;;5092240;28;20477;-48
2022/04/24 11:40:23;;;;;;;20.13;18.43;;;21.10;52.00;;;;;;5093090;28;20447;-50
2022/04/24 11:42:51;;;;;;;17.90;16.47;;;21.20;52.20;;;;;;5092572;28;20510;-47
2022/04/24 11:50:54;;;;;;;20.53;18.57;;;21.20;51.70;;;;;;5072500;28;20569;-51
2022/04/24 11:53:22;;;;;;;19.67;17.80;;;21.20;51.70;;;;;;5072687;28;20464;-49
2022/04/24 11:56:04;;;;;;;24.00;18.67;;;21.20;51.60;;;;;;5072808;28;20565;-50
2022/04/24 11:58:39;;;;;;;21.87;20.00;;;21.20;51.50;;;;;;5072664;28;20472;-46
2022/04/24 12:01:08;;;;;;;19.60;18.10;;;21.20;51.50;;;;;;5072260;28;20438;-45
2022/04/24 12:03:36;;;;;;;21.17;18.87;;;21.30;51.50;;;;;;5072034;28;20479;-44
2022/04/24 12:06:05;;;;;;;23.43;21.00;;;21.30;51.40;;;;;;5072969;28;20538;-46
2022/04/24 12:08:45;;;;;;;22.50;20.67;;;21.30;51.40;;;;;;5092177;28;20443;-50
2022/04/24 12:11:23;;;;;;;20.40;18.70;;;21.30;51.20;;;;;;5092533;28;20777;-46
2022/04/24 12:14:00;;;;;;;20.10;18.30;;;21.40;51.20;;;;;;5091807;28;20463;-53
2022/04/24 12:16:27;;;;;;;20.10;18.53;;;21.40;51.20;;;;;;5087905;28;20443;-47
2022/04/24 12:18:58;;;;;;;20.93;19.23;;;21.50;51.10;;;;;;5072180;28;20858;-47
2022/04/24 12:21:25;;;;;;;20.30;18.50;;;21.60;50.90;;;;;;5071945;28;20837;-47
2022/04/24 12:23:52;;;;;;;19.73;18.00;;;21.70;50.80;;;;;;5071869;28;20491;-48
2022/04/24 12:26:20;;;;;;;20.23;18.53;;;21.70;50.60;;;;;;5074380;28;20435;-47
2022/04/24 12:28:48;;;;;;;20.37;18.77;;;21.80;50.60;;;;;;5092253;28;20504;-46
2022/04/24 12:31:24;;;;;;;19.77;18.17;;;21.80;50.50;;;;;;5092145;28;20458;-46
2022/04/24 12:33:53;;;;;;;22.40;20.10;;;21.80;50.50;;;;;;5074658;28;20462;-47
2022/04/24 12:36:21;;;;;;;21.07;19.10;;;21.70;50.50;;;;;;5086355;28;20451;-46
2022/04/24 12:38:56;;;;;;;20.87;19.00;;;21.70;50.50;;;;;;5071816;28;20467;-52